Terminal Aerodrome Forecast
Issued by NWS

Home | Current Version | Previous Version | Graphics & Text | Print | Product List | Glossary On
Versions: 1 2 3 4 5 6 7 8 9 10 11 12 13 14 15 16 17
165
FTUS43 KICT 182320
TAFCNU
TAF
KCNU 182320Z 1900/1924 22006KT P6SM FEW045
     FM190700 36006KT P6SM FEW060
     FM191800 14007KT P6SM SKC=

USA.gov is the U.S. government's official web portal to all federal, state and local government web resources and services.